createdAt,value
2023-02-28T00:01:26.106Z,54.58
2023-02-28T00:03:53.232Z,54.64
2023-02-28T00:06:21.797Z,54.55
2023-02-28T00:08:48.735Z,54.77
2023-02-28T00:11:16.889Z,54.60
2023-02-28T00:13:49.798Z,54.75
2023-02-28T00:16:21.347Z,54.83
2023-02-28T00:18:48.699Z,54.78
2023-02-28T00:21:17.103Z,54.71
2023-02-28T00:23:44.790Z,54.52
2023-02-28T00:26:11.871Z,54.61
2023-02-28T00:28:39.942Z,54.51
2023-02-28T00:31:06.901Z,54.77
2023-02-28T00:33:34.024Z,54.90
2023-02-28T00:36:11.013Z,54.87
2023-02-28T00:38:39.791Z,54.53
2023-02-28T00:41:07.319Z,54.81
2023-02-28T00:43:37.040Z,54.49
2023-02-28T00:46:04.895Z,54.93
2023-02-28T00:48:32.397Z,55.04
2023-02-28T00:50:59.315Z,55.51
2023-02-28T00:53:26.377Z,55.23
2023-02-28T00:55:53.334Z,54.84
2023-02-28T00:58:20.225Z,55.01
2023-02-28T01:00:49.901Z,55.06
2023-02-28T01:03:22.126Z,54.54
2023-02-28T01:05:48.993Z,54.99
2023-02-28T01:08:17.425Z,55.05
2023-02-28T01:10:44.443Z,55.17
2023-02-28T01:13:12.780Z,55.12
2023-02-28T01:15:46.591Z,55.27
2023-02-28T01:18:13.485Z,55.23
2023-02-28T01:20:40.449Z,55.60
2023-02-28T01:23:07.365Z,55.57
2023-02-28T01:25:38.245Z,55.47
2023-02-28T01:28:06.647Z,55.36
2023-02-28T01:30:34.012Z,55.35
2023-02-28T01:33:01.060Z,55.05
2023-02-28T01:35:27.940Z,54.86
2023-02-28T01:37:55.166Z,55.36
2023-02-28T01:40:22.034Z,55.14
2023-02-28T01:42:48.910Z,55.20
2023-02-28T01:45:28.356Z,55.58
2023-02-28T01:48:02.357Z,55.51
2023-02-28T01:50:34.379Z,55.66
2023-02-28T01:53:05.896Z,55.61
2023-02-28T01:55:33.729Z,55.76
2023-02-28T01:58:05.800Z,55.77
2023-02-28T02:00:33.064Z,55.90
2023-02-28T02:03:17.366Z,55.93
2023-02-28T02:05:48.407Z,55.87
2023-02-28T02:08:25.172Z,55.99
2023-02-28T02:10:56.725Z,56.08
2023-02-28T02:14:09.448Z,56.13
2023-02-28T02:17:06.105Z,56.25
2023-02-28T02:20:17.560Z,55.98
2023-02-28T02:23:05.122Z,55.77
2023-02-28T02:26:12.010Z,56.13
2023-02-28T02:29:09.679Z,56.13
2023-02-28T02:32:19.701Z,55.71
2023-02-28T02:35:53.169Z,55.67
2023-02-28T02:38:47.884Z,55.66
2023-02-28T02:41:29.441Z,56.03
2023-02-28T02:44:18.887Z,56.43
2023-02-28T02:46:48.498Z,56.14
2023-02-28T02:49:28.211Z,56.22
2023-02-28T02:51:57.362Z,56.40
2023-02-28T02:54:30.190Z,55.86
2023-02-28T02:57:04.243Z,55.85
2023-02-28T02:59:32.337Z,55.67
2023-02-28T03:02:05.661Z,56.28
2023-02-28T03:04:41.436Z,55.82
2023-02-28T03:07:08.315Z,56.20
2023-02-28T03:09:36.610Z,55.97
2023-02-28T03:12:04.627Z,56.17
2023-02-28T03:14:58.161Z,56.44
2023-02-28T03:17:50.853Z,56.06
2023-02-28T03:20:39.551Z,56.25
2023-02-28T03:23:20.240Z,56.26
2023-02-28T03:26:14.836Z,56.06
2023-02-28T03:28:48.924Z,56.07
2023-02-28T03:31:29.594Z,56.38
2023-02-28T03:34:19.597Z,55.88
2023-02-28T03:36:51.323Z,56.01
2023-02-28T03:39:35.515Z,56.05
2023-02-28T03:42:09.829Z,56.29
2023-02-28T03:44:43.609Z,56.15
2023-02-28T03:47:28.436Z,56.54
2023-02-28T03:50:02.783Z,56.07
2023-02-28T03:52:36.328Z,56.37
2023-02-28T03:55:10.658Z,56.07
2023-02-28T03:58:12.564Z,56.51
2023-02-28T04:00:47.519Z,56.33
2023-02-28T04:03:15.169Z,56.23
2023-02-28T04:05:56.373Z,55.98
2023-02-28T04:08:24.103Z,55.98
2023-02-28T04:11:28.836Z,56.18
2023-02-28T04:13:55.878Z,56.64
2023-02-28T04:16:34.404Z,55.99
2023-02-28T04:19:05.866Z,56.12
2023-02-28T04:21:45.130Z,56.83
2023-02-28T04:24:22.745Z,56.39
2023-02-28T04:26:53.073Z,56.57
2023-02-28T04:29:24.898Z,56.16
2023-02-28T04:31:54.191Z,56.32
2023-02-28T04:34:22.172Z,56.55
2023-02-28T04:37:06.373Z,56.35
2023-02-28T04:39:39.144Z,56.62
2023-02-28T04:42:06.092Z,56.09
2023-02-28T04:44:33.027Z,56.51
2023-02-28T04:46:59.923Z,56.48
2023-02-28T04:49:26.906Z,56.75
2023-02-28T04:51:54.095Z,56.18
2023-02-28T04:54:21.144Z,57.00
2023-02-28T04:56:50.652Z,57.01
2023-02-28T04:59:17.660Z,56.76
2023-02-28T05:01:49.423Z,56.93
2023-02-28T05:04:16.597Z,56.28
2023-02-28T05:06:43.557Z,56.33
2023-02-28T05:09:12.540Z,56.14
2023-02-28T05:11:40.666Z,56.01
2023-02-28T05:14:14.856Z,56.56
2023-02-28T05:16:41.808Z,56.21
2023-02-28T05:19:08.758Z,56.37
2023-02-28T05:21:56.142Z,56.28
2023-02-28T05:24:26.006Z,56.09
2023-02-28T05:26:55.429Z,56.15
2023-02-28T05:29:23.047Z,56.62
2023-02-28T05:31:50.304Z,56.61
2023-02-28T05:34:17.283Z,55.65
2023-02-28T05:36:44.298Z,55.88
2023-02-28T05:39:13.629Z,55.89
2023-02-28T05:41:44.702Z,56.20
2023-02-28T05:44:11.859Z,55.65
2023-02-28T05:46:39.409Z,56.53
2023-02-28T05:49:06.462Z,56.54
2023-02-28T05:51:35.182Z,56.51
2023-02-28T05:54:02.798Z,56.67
2023-02-28T05:56:30.062Z,56.29
2023-02-28T05:58:57.002Z,56.56
2023-02-28T06:01:48.859Z,56.83
2023-02-28T06:04:31.065Z,56.15
2023-02-28T06:06:58.632Z,56.49
2023-02-28T06:09:25.988Z,56.87
2023-02-28T06:11:52.835Z,56.85
2023-02-28T06:14:20.853Z,56.47
2023-02-28T06:16:48.328Z,56.76
2023-02-28T06:19:16.192Z,57.15
2023-02-28T06:21:43.682Z,56.85
2023-02-28T06:24:11.309Z,56.77
2023-02-28T06:26:38.214Z,56.53
2023-02-28T06:29:05.070Z,56.41
2023-02-28T06:31:32.360Z,57.02
2023-02-28T06:33:59.549Z,56.56
2023-02-28T06:36:26.397Z,57.28
2023-02-28T06:38:55.729Z,57.40
2023-02-28T06:41:25.587Z,57.52
2023-02-28T06:43:53.102Z,57.46
2023-02-28T06:46:20.528Z,57.24
2023-02-28T06:48:48.023Z,57.57
2023-02-28T06:51:21.179Z,57.69
2023-02-28T06:53:48.066Z,57.41
2023-02-28T06:56:17.308Z,57.88
2023-02-28T06:58:49.382Z,57.49
2023-02-28T07:01:16.542Z,57.38
2023-02-28T07:03:43.903Z,58.14
2023-02-28T07:06:10.789Z,57.92
2023-02-28T07:08:38.053Z,58.16
2023-02-28T07:11:05.484Z,57.97
2023-02-28T07:13:32.601Z,58.69
2023-02-28T07:16:04.910Z,58.60
2023-02-28T07:18:32.415Z,58.52
2023-02-28T07:21:03.157Z,59.02
2023-02-28T07:23:30.018Z,58.94
2023-02-28T07:25:56.897Z,58.83
2023-02-28T07:28:24.223Z,59.14
2023-02-28T07:30:51.254Z,59.24
2023-02-28T07:33:18.315Z,59.30
2023-02-28T07:35:45.332Z,59.14
2023-02-28T07:38:14.536Z,59.45
2023-02-28T07:40:41.544Z,59.30
2023-02-28T07:43:08.547Z,59.39
2023-02-28T07:45:36.059Z,59.43
2023-02-28T07:48:03.241Z,59.33
2023-02-28T07:50:31.716Z,59.42
2023-02-28T07:53:01.533Z,59.58
2023-02-28T07:55:28.708Z,59.37
2023-02-28T07:57:55.619Z,59.89
2023-02-28T08:00:23.138Z,59.68
2023-02-28T08:02:50.494Z,59.59
2023-02-28T08:05:21.468Z,59.85
2023-02-28T08:07:50.642Z,59.84
2023-02-28T08:10:17.590Z,59.75
2023-02-28T08:12:44.449Z,59.94
2023-02-28T08:15:11.771Z,59.96
2023-02-28T08:17:38.615Z,59.71
2023-02-28T08:20:06.132Z,59.70
2023-02-28T08:22:33.013Z,60.12
2023-02-28T08:24:59.861Z,60.18
2023-02-28T08:27:26.722Z,60.16
2023-02-28T08:29:53.572Z,60.21
2023-02-28T08:32:29.286Z,60.45
2023-02-28T08:34:57.224Z,60.29
2023-02-28T08:37:24.290Z,60.22
2023-02-28T08:39:51.764Z,60.25
2023-02-28T08:42:19.272Z,60.37
2023-02-28T08:44:46.149Z,59.82
2023-02-28T08:47:13.012Z,60.30
2023-02-28T08:49:39.958Z,60.04
2023-02-28T08:52:07.058Z,60.34
2023-02-28T08:54:34.945Z,60.27
2023-02-28T08:57:02.029Z,59.84
2023-02-28T08:59:29.007Z,59.65
2023-02-28T09:01:55.848Z,59.73
2023-02-28T09:04:25.167Z,59.81
2023-02-28T09:06:52.401Z,59.98
2023-02-28T09:09:19.307Z,60.35
2023-02-28T09:11:46.218Z,60.11
2023-02-28T09:14:13.131Z,59.72
2023-02-28T09:16:40.065Z,59.56
2023-02-28T09:19:06.999Z,59.38
2023-02-28T09:21:33.883Z,59.37
2023-02-28T09:24:00.750Z,58.89
2023-02-28T09:26:34.843Z,58.47
2023-02-28T09:29:10.005Z,58.83
2023-02-28T09:31:37.039Z,58.35
2023-02-28T09:34:05.383Z,58.47
2023-02-28T09:36:43.589Z,57.79
2023-02-28T09:39:11.625Z,57.54
2023-02-28T09:41:50.971Z,57.65
2023-02-28T09:44:33.196Z,57.69
2023-02-28T09:47:12.475Z,56.67
2023-02-28T09:49:47.867Z,56.75
2023-02-28T09:52:31.339Z,55.43
2023-02-28T09:55:35.221Z,55.76
2023-02-28T09:58:21.737Z,54.91
2023-02-28T10:00:59.709Z,54.03
2023-02-28T10:03:40.036Z,53.81
2023-02-28T10:06:20.610Z,54.02
2023-02-28T10:09:02.372Z,53.67
2023-02-28T10:11:30.946Z,53.37
2023-02-28T10:14:05.441Z,52.56
2023-02-28T10:16:56.843Z,52.74
2023-02-28T10:19:55.386Z,52.50
2023-02-28T10:22:41.289Z,51.44
2023-02-28T10:25:25.636Z,51.38
2023-02-28T10:28:05.743Z,50.90
2023-02-28T10:30:32.688Z,50.96
2023-02-28T10:32:59.751Z,51.54
2023-02-28T10:35:28.094Z,51.16
2023-02-28T10:38:01.150Z,50.94
2023-02-28T10:40:36.455Z,50.28
2023-02-28T10:43:13.592Z,49.40
2023-02-28T10:45:54.149Z,49.58
2023-02-28T10:48:20.878Z,48.41
2023-02-28T10:50:50.872Z,47.73
2023-02-28T10:53:26.114Z,47.31
2023-02-28T10:56:17.625Z,47.21
2023-02-28T10:59:20.837Z,47.28
2023-02-28T11:01:51.628Z,46.94
2023-02-28T11:04:20.310Z,47.38
2023-02-28T11:06:47.539Z,47.59
2023-02-28T11:09:40.361Z,46.15
2023-02-28T11:12:21.959Z,46.41
2023-02-28T11:14:52.904Z,46.58
2023-02-28T11:17:30.671Z,46.24
2023-02-28T11:20:04.151Z,46.69
2023-02-28T11:22:39.128Z,46.37
2023-02-28T11:25:20.211Z,46.27
2023-02-28T11:27:51.020Z,45.57
2023-02-28T11:30:42.273Z,45.31
2023-02-28T11:33:33.301Z,45.52
2023-02-28T11:36:09.460Z,45.50
2023-02-28T11:38:37.506Z,45.34
2023-02-28T11:41:30.590Z,45.44
2023-02-28T11:44:33.863Z,45.52
2023-02-28T11:47:21.266Z,45.42
2023-02-28T11:50:28.107Z,45.43
2023-02-28T11:53:41.548Z,44.94
2023-02-28T11:56:32.503Z,44.73
2023-02-28T11:59:42.569Z,44.76
2023-02-28T12:02:29.203Z,44.74
2023-02-28T12:05:31.165Z,44.89
2023-02-28T12:08:40.934Z,44.88
2023-02-28T12:11:53.271Z,44.63
2023-02-28T12:14:51.125Z,44.42
2023-02-28T12:17:35.868Z,44.83
2023-02-28T12:20:36.895Z,44.39
2023-02-28T12:23:42.767Z,44.50
2023-02-28T12:26:27.887Z,44.37
2023-02-28T12:29:03.523Z,44.30
2023-02-28T12:31:39.960Z,44.09
2023-02-28T12:34:22.890Z,43.52
2023-02-28T12:36:52.853Z,43.39
2023-02-28T12:39:48.355Z,43.15
2023-02-28T12:42:31.417Z,42.59
2023-02-28T12:45:03.678Z,42.53
2023-02-28T12:47:30.515Z,42.56
2023-02-28T12:50:09.032Z,42.88
2023-02-28T12:53:13.314Z,42.93
2023-02-28T12:55:51.439Z,43.01
2023-02-28T12:58:51.072Z,42.99
2023-02-28T13:01:39.786Z,42.78
2023-02-28T13:04:45.323Z,42.63
2023-02-28T13:07:40.107Z,42.44
2023-02-28T13:10:08.705Z,41.49
2023-02-28T13:12:36.762Z,42.12
2023-02-28T13:15:22.147Z,41.58
2023-02-28T13:17:55.177Z,42.16
2023-02-28T13:20:27.161Z,41.54
2023-02-28T13:22:56.134Z,41.83
2023-02-28T13:25:22.892Z,40.84
2023-02-28T13:27:57.213Z,41.28
2023-02-28T13:30:52.061Z,40.73
2023-02-28T13:33:30.742Z,39.69
2023-02-28T13:36:14.412Z,40.54
2023-02-28T13:38:49.962Z,40.86
2023-02-28T13:41:35.372Z,40.11
2023-02-28T13:44:15.991Z,40.60
2023-02-28T13:46:49.514Z,40.95
2023-02-28T13:49:34.878Z,40.84
2023-02-28T13:52:08.019Z,40.60
2023-02-28T13:55:14.400Z,40.27
2023-02-28T13:58:15.990Z,40.23
2023-02-28T14:01:05.611Z,40.86
2023-02-28T14:04:13.579Z,40.24
2023-02-28T14:06:51.570Z,39.64
2023-02-28T14:09:34.022Z,39.82
2023-02-28T14:12:52.408Z,40.27
2023-02-28T14:15:47.223Z,39.05
2023-02-28T14:18:28.309Z,39.34
2023-02-28T14:21:11.042Z,39.45
2023-02-28T14:24:34.237Z,39.17
2023-02-28T14:27:18.430Z,39.09
2023-02-28T14:30:35.256Z,39.16
2023-02-28T14:33:06.912Z,39.14
2023-02-28T14:36:01.589Z,39.33
2023-02-28T14:38:37.976Z,39.01
2023-02-28T14:41:40.160Z,38.88
2023-02-28T14:44:22.449Z,37.95
2023-02-28T14:47:06.655Z,38.53
2023-02-28T14:49:43.867Z,38.58
2023-02-28T14:52:10.808Z,37.74
2023-02-28T14:54:41.504Z,37.58
2023-02-28T14:57:26.145Z,36.76
2023-02-28T15:00:04.889Z,36.52
2023-02-28T15:02:36.043Z,37.05
2023-02-28T15:05:28.120Z,37.49
2023-02-28T15:08:16.095Z,37.69
2023-02-28T15:10:59.560Z,38.04
2023-02-28T15:13:41.620Z,37.33
2023-02-28T15:16:26.752Z,37.51
2023-02-28T15:19:00.251Z,37.92
2023-02-28T15:21:37.289Z,38.17
2023-02-28T15:24:09.168Z,38.16
2023-02-28T15:26:41.216Z,38.45
2023-02-28T15:29:16.543Z,38.44
2023-02-28T15:31:58.058Z,38.67
2023-02-28T15:34:43.380Z,38.76
2023-02-28T15:37:33.436Z,38.45
2023-02-28T15:40:24.779Z,38.76
2023-02-28T15:43:10.353Z,38.60
2023-02-28T15:45:41.886Z,38.73
2023-02-28T15:48:26.807Z,38.17
2023-02-28T15:51:13.302Z,38.16
2023-02-28T15:53:52.141Z,37.92
2023-02-28T15:56:32.617Z,37.70
2023-02-28T15:59:06.515Z,38.36
2023-02-28T16:01:36.935Z,38.51
2023-02-28T16:04:17.407Z,38.47
2023-02-28T16:06:46.518Z,38.63
2023-02-28T16:09:17.836Z,38.66
2023-02-28T16:11:49.656Z,38.54
2023-02-28T16:14:21.828Z,38.85
2023-02-28T16:16:56.510Z,38.97
2023-02-28T16:19:24.782Z,38.83
2023-02-28T16:21:52.131Z,38.88
2023-02-28T16:24:19.151Z,38.96
2023-02-28T16:26:52.495Z,38.84
2023-02-28T16:29:30.821Z,39.00
2023-02-28T16:31:58.030Z,39.18
2023-02-28T16:34:25.389Z,38.96
2023-02-28T16:36:52.479Z,38.95
2023-02-28T16:39:21.641Z,39.14
2023-02-28T16:41:50.191Z,39.08
2023-02-28T16:44:31.086Z,39.22
2023-02-28T16:46:58.017Z,39.33
2023-02-28T16:49:25.442Z,39.76
2023-02-28T16:51:52.364Z,39.73
2023-02-28T16:54:19.236Z,39.72
2023-02-28T16:56:49.024Z,39.82
2023-02-28T16:59:23.272Z,39.72
2023-02-28T17:01:50.849Z,39.93
2023-02-28T17:04:17.877Z,40.08
2023-02-28T17:06:44.950Z,40.19
2023-02-28T17:09:28.308Z,40.01
2023-02-28T17:11:57.805Z,39.92
2023-02-28T17:14:24.733Z,40.39
2023-02-28T17:16:51.860Z,40.22
2023-02-28T17:19:19.140Z,40.54
2023-02-28T17:21:47.490Z,40.67
2023-02-28T17:24:28.882Z,40.75
2023-02-28T17:26:57.387Z,40.95
2023-02-28T17:29:25.347Z,41.06
2023-02-28T17:31:52.441Z,40.88
2023-02-28T17:34:20.572Z,41.22
2023-02-28T17:36:49.445Z,41.35
2023-02-28T17:39:25.089Z,41.69
2023-02-28T17:41:53.882Z,41.62
2023-02-28T17:44:22.263Z,41.71
2023-02-28T17:46:50.440Z,41.95
2023-02-28T17:49:21.032Z,41.79
2023-02-28T17:51:48.628Z,42.27
2023-02-28T17:54:18.217Z,42.32
2023-02-28T17:56:45.974Z,42.06
2023-02-28T17:59:13.734Z,42.34
2023-02-28T18:01:40.810Z,42.43
2023-02-28T18:04:07.738Z,42.61
2023-02-28T18:06:47.441Z,42.71
2023-02-28T18:09:22.505Z,42.89
2023-02-28T18:11:54.329Z,42.39
2023-02-28T18:14:24.965Z,42.87
2023-02-28T18:16:53.676Z,42.34
2023-02-28T18:19:21.190Z,42.77
2023-02-28T18:21:51.898Z,43.38
2023-02-28T18:24:21.763Z,42.89
2023-02-28T18:26:48.679Z,43.30
2023-02-28T18:29:27.610Z,43.24
2023-02-28T18:31:56.462Z,43.58
2023-02-28T18:34:24.808Z,43.35
2023-02-28T18:36:53.080Z,44.01
2023-02-28T18:39:20.329Z,44.01
2023-02-28T18:41:47.236Z,44.13
2023-02-28T18:44:19.769Z,43.85
2023-02-28T18:46:48.974Z,44.17
2023-02-28T18:49:16.092Z,44.30
2023-02-28T18:51:45.177Z,44.36
2023-02-28T18:54:13.649Z,44.51
2023-02-28T18:56:40.558Z,44.13
2023-02-28T18:59:07.473Z,44.14
2023-02-28T19:01:34.615Z,44.41
2023-02-28T19:04:03.549Z,44.90
2023-02-28T19:06:32.916Z,44.69
2023-02-28T19:09:02.562Z,45.00
2023-02-28T19:11:29.778Z,44.84
2023-02-28T19:13:57.087Z,45.19
2023-02-28T19:16:24.612Z,45.22
2023-02-28T19:18:51.849Z,44.92
2023-02-28T19:21:21.773Z,45.35
2023-02-28T19:23:49.047Z,44.98
2023-02-28T19:26:20.142Z,45.59
2023-02-28T19:28:47.487Z,45.84
2023-02-28T19:31:19.291Z,45.62
2023-02-28T19:33:46.297Z,45.69
2023-02-28T19:36:14.300Z,45.53
2023-02-28T19:38:42.514Z,45.74
2023-02-28T19:41:11.592Z,45.91
2023-02-28T19:43:39.008Z,46.38
2023-02-28T19:46:07.222Z,45.85
2023-02-28T19:48:34.138Z,46.74
2023-02-28T19:51:04.398Z,46.51
2023-02-28T19:53:33.126Z,46.38
2023-02-28T19:56:00.534Z,46.68
2023-02-28T19:58:28.009Z,46.36
2023-02-28T20:00:54.953Z,46.42
2023-02-28T20:03:22.507Z,47.33
2023-02-28T20:06:07.320Z,47.27
2023-02-28T20:08:34.465Z,47.18
2023-02-28T20:11:10.833Z,47.27
2023-02-28T20:13:38.213Z,47.82
2023-02-28T20:16:09.510Z,47.63
2023-02-28T20:18:37.922Z,47.61
2023-02-28T20:21:05.127Z,47.87
2023-02-28T20:23:32.016Z,47.86
2023-02-28T20:26:00.429Z,48.28
2023-02-28T20:28:27.601Z,48.07
2023-02-28T20:30:54.802Z,48.29
2023-02-28T20:33:22.167Z,48.45
2023-02-28T20:35:49.600Z,48.72
2023-02-28T20:38:16.580Z,48.62
2023-02-28T20:40:43.451Z,49.05
2023-02-28T20:43:10.338Z,49.49
2023-02-28T20:45:37.258Z,49.04
2023-02-28T20:48:04.144Z,49.56
2023-02-28T20:50:31.652Z,49.29
2023-02-28T20:52:58.507Z,49.63
2023-02-28T20:55:25.359Z,49.86
2023-02-28T20:57:54.081Z,49.51
2023-02-28T21:00:22.435Z,49.63
2023-02-28T21:02:49.402Z,49.72
2023-02-28T21:05:17.030Z,49.60
2023-02-28T21:07:43.914Z,49.90
2023-02-28T21:10:11.705Z,50.13
2023-02-28T21:12:38.598Z,50.12
2023-02-28T21:15:05.968Z,50.34
2023-02-28T21:17:32.872Z,50.67
2023-02-28T21:19:59.749Z,50.63
2023-02-28T21:22:26.621Z,50.38
2023-02-28T21:24:53.526Z,50.83
2023-02-28T21:27:20.426Z,50.23
2023-02-28T21:29:47.366Z,50.32
2023-02-28T21:32:14.815Z,50.52
2023-02-28T21:34:41.802Z,50.80
2023-02-28T21:37:08.720Z,50.35
2023-02-28T21:39:35.802Z,50.84
2023-02-28T21:42:03.773Z,50.77
2023-02-28T21:44:32.428Z,50.52
2023-02-28T21:47:02.613Z,50.72
2023-02-28T21:49:30.227Z,50.42
2023-02-28T21:51:57.477Z,50.47
2023-02-28T21:54:24.854Z,50.96
2023-02-28T21:56:52.102Z,50.56
2023-02-28T21:59:20.054Z,50.61
2023-02-28T22:01:49.242Z,50.63
2023-02-28T22:04:22.034Z,51.06
2023-02-28T22:06:52.673Z,50.78
2023-02-28T22:09:20.058Z,50.81
2023-02-28T22:11:47.286Z,50.64
2023-02-28T22:14:14.519Z,51.12
2023-02-28T22:16:51.461Z,50.86
2023-02-28T22:19:20.676Z,51.04
2023-02-28T22:21:47.721Z,50.92
2023-02-28T22:24:17.458Z,51.00
2023-02-28T22:26:44.535Z,51.09
2023-02-28T22:29:11.424Z,51.05
2023-02-28T22:31:38.357Z,50.91
2023-02-28T22:34:08.849Z,51.06
2023-02-28T22:36:36.053Z,50.97
2023-02-28T22:39:05.046Z,51.39
2023-02-28T22:41:32.847Z,51.25
2023-02-28T22:44:03.836Z,51.44
2023-02-28T22:46:33.271Z,51.32
2023-02-28T22:49:05.384Z,51.30
2023-02-28T22:51:32.325Z,51.32
2023-02-28T22:53:59.250Z,51.78
2023-02-28T22:56:28.858Z,51.41
2023-02-28T22:58:59.207Z,51.57
2023-02-28T23:01:30.840Z,51.31
2023-02-28T23:03:58.386Z,51.84
2023-02-28T23:06:35.128Z,51.58
2023-02-28T23:09:06.907Z,51.99
2023-02-28T23:11:43.104Z,52.04
2023-02-28T23:14:13.450Z,52.28
2023-02-28T23:16:48.490Z,51.96
2023-02-28T23:19:23.834Z,51.60
2023-02-28T23:21:51.285Z,51.83
2023-02-28T23:24:21.857Z,51.99
2023-02-28T23:26:51.517Z,52.09
2023-02-28T23:29:20.586Z,51.90
2023-02-28T23:31:48.155Z,52.10
2023-02-28T23:34:17.233Z,52.41
2023-02-28T23:36:46.210Z,52.34
2023-02-28T23:39:15.988Z,52.34
2023-02-28T23:41:42.890Z,52.38
2023-02-28T23:44:13.649Z,52.42
2023-02-28T23:46:40.653Z,52.52
2023-02-28T23:49:07.526Z,52.39
2023-02-28T23:51:34.386Z,52.53
2023-02-28T23:54:02.980Z,52.45
2023-02-28T23:56:31.016Z,52.88
2023-02-28T23:58:59.462Z,52.71
